sensor_id;sensor_type;location;lat;lon;timestamp;temperature;humidity
17774;DHT22;9011;33.236;-97.118;2022-11-11T00:02:04;21.60;99.90
17774;DHT22;9011;33.236;-97.118;2022-11-11T00:04:33;21.60;99.90
17774;DHT22;9011;33.236;-97.118;2022-11-11T00:07:03;21.60;99.90
17774;DHT22;9011;33.236;-97.118;2022-11-11T00:09:31;21.60;99.90
17774;DHT22;9011;33.236;-97.118;2022-11-11T00:12:01;21.60;99.90
17774;DHT22;9011;33.236;-97.118;2022-11-11T00:14:29;21.60;99.90
17774;DHT22;9011;33.236;-97.118;2022-11-11T00:16:57;21.60;99.90
17774;DHT22;9011;33.236;-97.118;2022-11-11T00:19:43;21.60;99.90
17774;DHT22;9011;33.236;-97.118;2022-11-11T00:22:29;21.50;99.90
17774;DHT22;9011;33.236;-97.118;2022-11-11T00:25:16;21.50;99.90
17774;DHT22;9011;33.236;-97.118;2022-11-11T00:27:46;21.50;99.90
17774;DHT22;9011;33.236;-97.118;2022-11-11T00:30:14;21.40;99.90
17774;DHT22;9011;33.236;-97.118;2022-11-11T00:32:42;21.40;99.90
17774;DHT22;9011;33.236;-97.118;2022-11-11T00:35:11;21.40;99.90
17774;DHT22;9011;33.236;-97.118;2022-11-11T00:38:12;21.40;99.90
17774;DHT22;9011;33.236;-97.118;2022-11-11T00:41:01;21.40;99.90
17774;DHT22;9011;33.236;-97.118;2022-11-11T00:43:29;21.40;99.90
17774;DHT22;9011;33.236;-97.118;2022-11-11T00:45:58;21.40;99.90
17774;DHT22;9011;33.236;-97.118;2022-11-11T00:48:39;21.40;99.90
17774;DHT22;9011;33.236;-97.118;2022-11-11T00:51:25;21.40;99.90
17774;DHT22;9011;33.236;-97.118;2022-11-11T00:53:55;21.40;99.90
17774;DHT22;9011;33.236;-97.118;2022-11-11T00:56:24;21.50;99.90
17774;DHT22;9011;33.236;-97.118;2022-11-11T00:58:52;21.40;99.90
17774;DHT22;9011;33.236;-97.118;2022-11-11T01:01:21;21.30;99.90
17774;DHT22;9011;33.236;-97.118;2022-11-11T01:03:49;21.30;99.90
17774;DHT22;9011;33.236;-97.118;2022-11-11T01:06:18;21.20;99.90
17774;DHT22;9011;33.236;-97.118;2022-11-11T01:08:46;21.20;99.90
17774;DHT22;9011;33.236;-97.118;2022-11-11T01:11:17;21.20;99.90
17774;DHT22;9011;33.236;-97.118;2022-11-11T01:13:46;21.10;99.90
17774;DHT22;9011;33.236;-97.118;2022-11-11T01:16:17;21.20;99.90
17774;DHT22;9011;33.236;-97.118;2022-11-11T01:18:45;21.30;99.90
17774;DHT22;9011;33.236;-97.118;2022-11-11T01:21:15;21.30;99.90
17774;DHT22;9011;33.236;-97.118;2022-11-11T01:23:44;21.30;99.90
17774;DHT22;9011;33.236;-97.118;2022-11-11T01:26:17;21.30;99.90
17774;DHT22;9011;33.236;-97.118;2022-11-11T01:28:48;21.30;99.90
17774;DHT22;9011;33.236;-97.118;2022-11-11T01:31:17;21.40;99.90
17774;DHT22;9011;33.236;-97.118;2022-11-11T01:33:45;21.30;99.90
17774;DHT22;9011;33.236;-97.118;2022-11-11T01:36:15;21.30;99.90
17774;DHT22;9011;33.236;-97.118;2022-11-11T01:38:48;21.20;99.90
17774;DHT22;9011;33.236;-97.118;2022-11-11T01:41:19;21.20;99.90
17774;DHT22;9011;33.236;-97.118;2022-11-11T01:44:18;21.20;99.90
17774;DHT22;9011;33.236;-97.118;2022-11-11T01:46:49;21.10;99.90
17774;DHT22;9011;33.236;-97.118;2022-11-11T01:49:24;21.00;99.90
17774;DHT22;9011;33.236;-97.118;2022-11-11T01:51:59;20.90;99.90
17774;DHT22;9011;33.236;-97.118;2022-11-11T01:54:32;20.90;99.90
17774;DHT22;9011;33.236;-97.118;2022-11-11T01:57:07;20.70;99.90
17774;DHT22;9011;33.236;-97.118;2022-11-11T01:59:40;20.60;99.90
17774;DHT22;9011;33.236;-97.118;2022-11-11T02:02:15;20.70;99.90
17774;DHT22;9011;33.236;-97.118;2022-11-11T02:04:44;20.60;99.90
17774;DHT22;9011;33.236;-97.118;2022-11-11T02:07:30;20.60;99.90
17774;DHT22;9011;33.236;-97.118;2022-11-11T02:09:59;20.50;99.90
17774;DHT22;9011;33.236;-97.118;2022-11-11T02:12:30;20.50;99.90
17774;DHT22;9011;33.236;-97.118;2022-11-11T02:15:15;20.40;99.90
17774;DHT22;9011;33.236;-97.118;2022-11-11T02:17:46;20.40;99.90
17774;DHT22;9011;33.236;-97.118;2022-11-11T02:20:18;20.30;99.90
17774;DHT22;9011;33.236;-97.118;2022-11-11T02:22:50;20.30;99.90
17774;DHT22;9011;33.236;-97.118;2022-11-11T02:25:23;20.40;99.90
17774;DHT22;9011;33.236;-97.118;2022-11-11T02:27:56;20.30;99.90
17774;DHT22;9011;33.236;-97.118;2022-11-11T02:30:25;20.20;99.90
17774;DHT22;9011;33.236;-97.118;2022-11-11T02:32:54;20.10;99.90
17774;DHT22;9011;33.236;-97.118;2022-11-11T02:35:28;20.10;99.90
17774;DHT22;9011;33.236;-97.118;2022-11-11T02:37:56;20.10;99.90
17774;DHT22;9011;33.236;-97.118;2022-11-11T02:40:29;20.10;99.90
17774;DHT22;9011;33.236;-97.118;2022-11-11T02:43:00;20.00;99.90
17774;DHT22;9011;33.236;-97.118;2022-11-11T02:45:31;20.00;99.90
17774;DHT22;9011;33.236;-97.118;2022-11-11T02:48:00;20.00;99.90
17774;DHT22;9011;33.236;-97.118;2022-11-11T02:50:28;19.90;99.90
17774;DHT22;9011;33.236;-97.118;2022-11-11T02:52:56;19.90;99.90
17774;DHT22;9011;33.236;-97.118;2022-11-11T02:55:29;19.90;99.90
17774;DHT22;9011;33.236;-97.118;2022-11-11T02:57:57;20.00;99.90
17774;DHT22;9011;33.236;-97.118;2022-11-11T03:00:26;20.00;99.90
17774;DHT22;9011;33.236;-97.118;2022-11-11T03:02:55;20.00;99.90
17774;DHT22;9011;33.236;-97.118;2022-11-11T03:05:23;20.00;99.90
17774;DHT22;9011;33.236;-97.118;2022-11-11T03:07:52;20.00;99.90
17774;DHT22;9011;33.236;-97.118;2022-11-11T03:10:21;20.10;99.90
17774;DHT22;9011;33.236;-97.118;2022-11-11T03:12:52;20.10;99.90
17774;DHT22;9011;33.236;-97.118;2022-11-11T03:15:20;20.10;99.90
17774;DHT22;9011;33.236;-97.118;2022-11-11T03:17:49;20.10;99.90
17774;DHT22;9011;33.236;-97.118;2022-11-11T03:20:17;20.10;99.90
17774;DHT22;9011;33.236;-97.118;2022-11-11T03:23:03;20.00;99.90
17774;DHT22;9011;33.236;-97.118;2022-11-11T03:25:32;19.90;99.90
17774;DHT22;9011;33.236;-97.118;2022-11-11T03:28:07;20.00;99.90
17774;DHT22;9011;33.236;-97.118;2022-11-11T03:30:37;20.10;99.90
17774;DHT22;9011;33.236;-97.118;2022-11-11T03:33:08;20.10;99.90
17774;DHT22;9011;33.236;-97.118;2022-11-11T03:35:37;20.10;99.90
17774;DHT22;9011;33.236;-97.118;2022-11-11T03:38:06;20.10;99.90
17774;DHT22;9011;33.236;-97.118;2022-11-11T03:40:50;20.10;99.90
17774;DHT22;9011;33.236;-97.118;2022-11-11T03:43:22;20.00;99.90
17774;DHT22;9011;33.236;-97.118;2022-11-11T03:45:51;20.00;99.90
17774;DHT22;9011;33.236;-97.118;2022-11-11T03:48:20;20.10;99.90
17774;DHT22;9011;33.236;-97.118;2022-11-11T03:50:49;20.00;99.90
17774;DHT22;9011;33.236;-97.118;2022-11-11T03:53:18;20.00;99.90
17774;DHT22;9011;33.236;-97.118;2022-11-11T03:55:48;19.90;99.90
17774;DHT22;9011;33.236;-97.118;2022-11-11T03:58:17;19.90;99.90
17774;DHT22;9011;33.236;-97.118;2022-11-11T04:00:47;19.90;99.90
17774;DHT22;9011;33.236;-97.118;2022-11-11T04:03:18;19.70;99.90
17774;DHT22;9011;33.236;-97.118;2022-11-11T04:06:07;19.80;99.90
17774;DHT22;9011;33.236;-97.118;2022-11-11T04:08:53;19.80;99.90
17774;DHT22;9011;33.236;-97.118;2022-11-11T04:11:40;19.80;99.90
17774;DHT22;9011;33.236;-97.118;2022-11-11T04:14:11;19.80;99.90
17774;DHT22;9011;33.236;-97.118;2022-11-11T04:16:59;19.80;99.90
17774;DHT22;9011;33.236;-97.118;2022-11-11T04:19:27;19.80;99.90
17774;DHT22;9011;33.236;-97.118;2022-11-11T04:22:13;19.70;99.90
17774;DHT22;9011;33.236;-97.118;2022-11-11T04:24:41;19.70;99.90
17774;DHT22;9011;33.236;-97.118;2022-11-11T04:27:26;19.80;99.90
17774;DHT22;9011;33.236;-97.118;2022-11-11T04:29:55;19.80;99.90
17774;DHT22;9011;33.236;-97.118;2022-11-11T04:32:24;19.80;99.90
17774;DHT22;9011;33.236;-97.118;2022-11-11T04:35:08;19.80;99.90
17774;DHT22;9011;33.236;-97.118;2022-11-11T04:37:44;19.80;99.90
17774;DHT22;9011;33.236;-97.118;2022-11-11T04:40:16;19.80;99.90
17774;DHT22;9011;33.236;-97.118;2022-11-11T04:43:01;19.80;99.90
17774;DHT22;9011;33.236;-97.118;2022-11-11T04:45:30;19.90;99.90
17774;DHT22;9011;33.236;-97.118;2022-11-11T04:47:59;19.90;99.90
17774;DHT22;9011;33.236;-97.118;2022-11-11T04:50:29;19.80;99.90
17774;DHT22;9011;33.236;-97.118;2022-11-11T04:52:58;19.80;99.90
17774;DHT22;9011;33.236;-97.118;2022-11-11T04:55:27;19.80;99.90
17774;DHT22;9011;33.236;-97.118;2022-11-11T04:58:12;19.80;99.90
17774;DHT22;9011;33.236;-97.118;2022-11-11T05:00:41;19.90;99.90
17774;DHT22;9011;33.236;-97.118;2022-11-11T05:03:12;19.80;99.90
17774;DHT22;9011;33.236;-97.118;2022-11-11T05:05:47;19.80;99.90
17774;DHT22;9011;33.236;-97.118;2022-11-11T05:08:34;19.70;99.90
17774;DHT22;9011;33.236;-97.118;2022-11-11T05:11:23;19.70;99.90
17774;DHT22;9011;33.236;-97.118;2022-11-11T05:13:53;19.70;99.90
17774;DHT22;9011;33.236;-97.118;2022-11-11T05:16:40;19.70;99.90
17774;DHT22;9011;33.236;-97.118;2022-11-11T05:19:28;19.70;99.90
17774;DHT22;9011;33.236;-97.118;2022-11-11T05:22:16;19.60;99.90
17774;DHT22;9011;33.236;-97.118;2022-11-11T05:24:45;19.60;99.90
17774;DHT22;9011;33.236;-97.118;2022-11-11T05:27:31;19.70;99.90
17774;DHT22;9011;33.236;-97.118;2022-11-11T05:30:00;19.70;99.90
17774;DHT22;9011;33.236;-97.118;2022-11-11T05:32:28;19.60;99.90
17774;DHT22;9011;33.236;-97.118;2022-11-11T05:34:59;19.60;99.90
17774;DHT22;9011;33.236;-97.118;2022-11-11T05:37:27;19.60;99.90
17774;DHT22;9011;33.236;-97.118;2022-11-11T05:39:56;19.60;99.90
17774;DHT22;9011;33.236;-97.118;2022-11-11T05:42:25;19.60;99.90
17774;DHT22;9011;33.236;-97.118;2022-11-11T05:44:53;19.60;99.90
17774;DHT22;9011;33.236;-97.118;2022-11-11T05:47:21;19.60;99.90
17774;DHT22;9011;33.236;-97.118;2022-11-11T05:49:50;19.60;99.90
17774;DHT22;9011;33.236;-97.118;2022-11-11T05:52:20;19.60;99.90
17774;DHT22;9011;33.236;-97.118;2022-11-11T05:54:49;19.60;99.90
17774;DHT22;9011;33.236;-97.118;2022-11-11T05:57:17;19.60;99.90
17774;DHT22;9011;33.236;-97.118;2022-11-11T05:59:45;19.60;99.90
17774;DHT22;9011;33.236;-97.118;2022-11-11T06:02:14;19.50;99.90
17774;DHT22;9011;33.236;-97.118;2022-11-11T06:04:42;19.50;99.90
17774;DHT22;9011;33.236;-97.118;2022-11-11T06:07:11;19.50;99.90
17774;DHT22;9011;33.236;-97.118;2022-11-11T06:09:42;19.50;99.90
17774;DHT22;9011;33.236;-97.118;2022-11-11T06:12:10;19.50;99.90
17774;DHT22;9011;33.236;-97.118;2022-11-11T06:14:38;19.50;99.90
17774;DHT22;9011;33.236;-97.118;2022-11-11T06:17:07;19.40;99.90
17774;DHT22;9011;33.236;-97.118;2022-11-11T06:19:35;19.50;99.90
17774;DHT22;9011;33.236;-97.118;2022-11-11T06:22:04;19.40;99.90
17774;DHT22;9011;33.236;-97.118;2022-11-11T06:24:32;19.40;99.90
17774;DHT22;9011;33.236;-97.118;2022-11-11T06:27:03;19.40;99.90
17774;DHT22;9011;33.236;-97.118;2022-11-11T06:29:34;19.30;99.90
17774;DHT22;9011;33.236;-97.118;2022-11-11T06:32:03;19.30;99.90
17774;DHT22;9011;33.236;-97.118;2022-11-11T06:34:32;19.30;99.90
17774;DHT22;9011;33.236;-97.118;2022-11-11T06:37:03;19.40;99.90
17774;DHT22;9011;33.236;-97.118;2022-11-11T06:39:32;19.30;99.90
17774;DHT22;9011;33.236;-97.118;2022-11-11T06:42:07;19.30;99.90
17774;DHT22;9011;33.236;-97.118;2022-11-11T06:44:36;19.30;99.90
17774;DHT22;9011;33.236;-97.118;2022-11-11T06:47:05;19.30;99.90
17774;DHT22;9011;33.236;-97.118;2022-11-11T06:49:33;19.30;99.90
17774;DHT22;9011;33.236;-97.118;2022-11-11T06:52:02;19.30;99.90
17774;DHT22;9011;33.236;-97.118;2022-11-11T06:54:32;19.30;99.90
17774;DHT22;9011;33.236;-97.118;2022-11-11T06:57:02;19.30;99.90
17774;DHT22;9011;33.236;-97.118;2022-11-11T06:59:31;19.40;99.90
17774;DHT22;9011;33.236;-97.118;2022-11-11T07:01:59;19.30;99.90
17774;DHT22;9011;33.236;-97.118;2022-11-11T07:04:28;19.20;99.90
17774;DHT22;9011;33.236;-97.118;2022-11-11T07:06:56;19.20;99.90
17774;DHT22;9011;33.236;-97.118;2022-11-11T07:09:24;19.20;99.90
17774;DHT22;9011;33.236;-97.118;2022-11-11T07:11:54;19.20;99.90
17774;DHT22;9011;33.236;-97.118;2022-11-11T07:14:24;19.20;99.90
17774;DHT22;9011;33.236;-97.118;2022-11-11T07:16:53;19.20;99.90
17774;DHT22;9011;33.236;-97.118;2022-11-11T07:19:21;19.20;99.90
17774;DHT22;9011;33.236;-97.118;2022-11-11T07:21:49;19.20;99.90
17774;DHT22;9011;33.236;-97.118;2022-11-11T07:24:18;19.30;99.90
17774;DHT22;9011;33.236;-97.118;2022-11-11T07:26:47;19.30;99.90
17774;DHT22;9011;33.236;-97.118;2022-11-11T07:29:15;19.30;99.90
17774;DHT22;9011;33.236;-97.118;2022-11-11T07:31:46;19.30;99.90
17774;DHT22;9011;33.236;-97.118;2022-11-11T07:34:16;19.20;99.90
17774;DHT22;9011;33.236;-97.118;2022-11-11T07:36:44;19.20;99.90
17774;DHT22;9011;33.236;-97.118;2022-11-11T07:39:13;19.30;99.90
17774;DHT22;9011;33.236;-97.118;2022-11-11T07:41:41;19.20;99.90
17774;DHT22;9011;33.236;-97.118;2022-11-11T07:44:10;19.30;99.90
17774;DHT22;9011;33.236;-97.118;2022-11-11T07:46:38;19.30;99.90
17774;DHT22;9011;33.236;-97.118;2022-11-11T07:49:08;19.30;99.90
17774;DHT22;9011;33.236;-97.118;2022-11-11T07:51:37;19.30;99.90
17774;DHT22;9011;33.236;-97.118;2022-11-11T07:54:05;19.30;99.90
17774;DHT22;9011;33.236;-97.118;2022-11-11T07:56:34;19.40;99.90
17774;DHT22;9011;33.236;-97.118;2022-11-11T07:59:02;19.40;99.90
17774;DHT22;9011;33.236;-97.118;2022-11-11T08:01:31;19.50;99.90
17774;DHT22;9011;33.236;-97.118;2022-11-11T08:03:59;19.50;99.90
17774;DHT22;9011;33.236;-97.118;2022-11-11T08:06:29;19.50;99.90
17774;DHT22;9011;33.236;-97.118;2022-11-11T08:08:58;19.40;99.90
17774;DHT22;9011;33.236;-97.118;2022-11-11T08:11:26;18.40;99.90
17774;DHT22;9011;33.236;-97.118;2022-11-11T08:14:11;18.00;99.90
17774;DHT22;9011;33.236;-97.118;2022-11-11T08:16:40;16.90;99.90
17774;DHT22;9011;33.236;-97.118;2022-11-11T08:19:08;16.40;99.90
17774;DHT22;9011;33.236;-97.118;2022-11-11T08:21:38;16.00;99.90
17774;DHT22;9011;33.236;-97.118;2022-11-11T08:24:06;15.60;99.90
17774;DHT22;9011;33.236;-97.118;2022-11-11T08:26:35;15.30;99.90
17774;DHT22;9011;33.236;-97.118;2022-11-11T08:29:03;15.10;99.90
17774;DHT22;9011;33.236;-97.118;2022-11-11T08:31:32;14.90;99.90
17774;DHT22;9011;33.236;-97.118;2022-11-11T08:34:01;14.70;99.90
17774;DHT22;9011;33.236;-97.118;2022-11-11T08:36:29;14.60;99.90
17774;DHT22;9011;33.236;-97.118;2022-11-11T08:39:00;14.40;99.90
17774;DHT22;9011;33.236;-97.118;2022-11-11T08:41:28;14.10;99.90
17774;DHT22;9011;33.236;-97.118;2022-11-11T08:43:57;13.90;99.90
17774;DHT22;9011;33.236;-97.118;2022-11-11T08:46:26;13.90;99.90
17774;DHT22;9011;33.236;-97.118;2022-11-11T08:48:55;13.70;99.90
17774;DHT22;9011;33.236;-97.118;2022-11-11T08:51:23;13.40;99.90
17774;DHT22;9011;33.236;-97.118;2022-11-11T08:53:51;13.30;99.90
17774;DHT22;9011;33.236;-97.118;2022-11-11T08:56:22;13.10;99.90
17774;DHT22;9011;33.236;-97.118;2022-11-11T08:58:51;12.90;99.90
17774;DHT22;9011;33.236;-97.118;2022-11-11T09:01:19;12.60;99.90
17774;DHT22;9011;33.236;-97.118;2022-11-11T09:03:47;12.50;99.90
17774;DHT22;9011;33.236;-97.118;2022-11-11T09:06:16;12.40;99.90
17774;DHT22;9011;33.236;-97.118;2022-11-11T09:08:44;12.30;99.90
17774;DHT22;9011;33.236;-97.118;2022-11-11T09:11:13;12.20;99.90
17774;DHT22;9011;33.236;-97.118;2022-11-11T09:13:43;12.00;99.90
17774;DHT22;9011;33.236;-97.118;2022-11-11T09:16:11;12.00;99.90
17774;DHT22;9011;33.236;-97.118;2022-11-11T09:18:40;12.00;99.90
17774;DHT22;9011;33.236;-97.118;2022-11-11T09:21:08;11.90;99.90
17774;DHT22;9011;33.236;-97.118;2022-11-11T09:23:37;12.00;99.90
17774;DHT22;9011;33.236;-97.118;2022-11-11T09:26:05;11.90;99.90
17774;DHT22;9011;33.236;-97.118;2022-11-11T09:28:33;11.90;99.90
17774;DHT22;9011;33.236;-97.118;2022-11-11T09:31:03;11.90;99.90
17774;DHT22;9011;33.236;-97.118;2022-11-11T09:33:32;11.80;99.90
17774;DHT22;9011;33.236;-97.118;2022-11-11T09:36:00;11.70;99.90
17774;DHT22;9011;33.236;-97.118;2022-11-11T09:38:29;11.70;99.90
17774;DHT22;9011;33.236;-97.118;2022-11-11T09:41:11;11.70;99.90
17774;DHT22;9011;33.236;-97.118;2022-11-11T09:43:47;11.80;99.90
17774;DHT22;9011;33.236;-97.118;2022-11-11T09:46:38;11.80;99.90
17774;DHT22;9011;33.236;-97.118;2022-11-11T09:49:26;11.70;99.90
17774;DHT22;9011;33.236;-97.118;2022-11-11T09:52:00;11.60;99.90
17774;DHT22;9011;33.236;-97.118;2022-11-11T09:54:34;11.50;99.90
17774;DHT22;9011;33.236;-97.118;2022-11-11T09:57:12;11.40;99.90
17774;DHT22;9011;33.236;-97.118;2022-11-11T09:59:45;11.50;99.90
17774;DHT22;9011;33.236;-97.118;2022-11-11T10:02:29;11.50;99.90
17774;DHT22;9011;33.236;-97.118;2022-11-11T10:05:04;11.40;99.90
17774;DHT22;9011;33.236;-97.118;2022-11-11T10:07:36;11.50;99.90
17774;DHT22;9011;33.236;-97.118;2022-11-11T10:10:23;11.50;99.90
17774;DHT22;9011;33.236;-97.118;2022-11-11T10:12:56;11.40;99.90
17774;DHT22;9011;33.236;-97.118;2022-11-11T10:15:31;11.40;99.90
17774;DHT22;9011;33.236;-97.118;2022-11-11T10:21:10;11.20;99.90
17774;DHT22;9011;33.236;-97.118;2022-11-11T10:23:44;11.30;99.90
17774;DHT22;9011;33.236;-97.118;2022-11-11T10:26:18;11.10;99.90
17774;DHT22;9011;33.236;-97.118;2022-11-11T10:28:50;11.10;99.90
17774;DHT22;9011;33.236;-97.118;2022-11-11T10:31:21;11.10;99.90
17774;DHT22;9011;33.236;-97.118;2022-11-11T10:33:53;11.10;99.90
17774;DHT22;9011;33.236;-97.118;2022-11-11T10:36:26;11.20;99.90
17774;DHT22;9011;33.236;-97.118;2022-11-11T10:38:57;11.20;99.90
17774;DHT22;9011;33.236;-97.118;2022-11-11T10:41:30;11.20;99.90
17774;DHT22;9011;33.236;-97.118;2022-11-11T10:44:00;11.10;99.90
17774;DHT22;9011;33.236;-97.118;2022-11-11T10:46:33;11.20;99.90
17774;DHT22;9011;33.236;-97.118;2022-11-11T10:49:07;11.10;99.90
17774;DHT22;9011;33.236;-97.118;2022-11-11T10:51:45;11.10;99.90
17774;DHT22;9011;33.236;-97.118;2022-11-11T10:54:18;11.20;99.90
17774;DHT22;9011;33.236;-97.118;2022-11-11T10:56:53;11.20;99.90
17774;DHT22;9011;33.236;-97.118;2022-11-11T10:59:25;11.20;99.90
17774;DHT22;9011;33.236;-97.118;2022-11-11T11:01:59;11.20;99.90
17774;DHT22;9011;33.236;-97.118;2022-11-11T11:04:36;11.10;99.90
17774;DHT22;9011;33.236;-97.118;2022-11-11T11:07:10;11.10;99.90
17774;DHT22;9011;33.236;-97.118;2022-11-11T11:09:44;11.10;99.90
17774;DHT22;9011;33.236;-97.118;2022-11-11T11:12:17;11.10;99.90
17774;DHT22;9011;33.236;-97.118;2022-11-11T11:14:49;11.10;99.90
17774;DHT22;9011;33.236;-97.118;2022-11-11T11:17:22;11.10;99.90
17774;DHT22;9011;33.236;-97.118;2022-11-11T11:20:07;11.00;99.90
17774;DHT22;9011;33.236;-97.118;2022-11-11T11:22:48;11.00;99.90
17774;DHT22;9011;33.236;-97.118;2022-11-11T11:25:18;11.00;99.90
17774;DHT22;9011;33.236;-97.118;2022-11-11T11:27:48;10.90;99.90
17774;DHT22;9011;33.236;-97.118;2022-11-11T11:30:18;11.00;99.90
17774;DHT22;9011;33.236;-97.118;2022-11-11T11:32:57;11.00;99.90
17774;DHT22;9011;33.236;-97.118;2022-11-11T11:35:34;11.00;99.90
17774;DHT22;9011;33.236;-97.118;2022-11-11T11:38:04;10.90;99.90
17774;DHT22;9011;33.236;-97.118;2022-11-11T11:40:50;10.90;99.90
17774;DHT22;9011;33.236;-97.118;2022-11-11T11:43:31;10.90;99.90
17774;DHT22;9011;33.236;-97.118;2022-11-11T11:46:01;10.90;99.90
17774;DHT22;9011;33.236;-97.118;2022-11-11T11:48:38;10.90;99.90
17774;DHT22;9011;33.236;-97.118;2022-11-11T11:51:19;10.90;99.90
17774;DHT22;9011;33.236;-97.118;2022-11-11T11:54:02;10.80;99.90
17774;DHT22;9011;33.236;-97.118;2022-11-11T11:56:38;10.80;99.90
17774;DHT22;9011;33.236;-97.118;2022-11-11T11:59:13;10.70;99.90
17774;DHT22;9011;33.236;-97.118;2022-11-11T12:01:51;10.70;99.90
17774;DHT22;9011;33.236;-97.118;2022-11-11T12:08:04;10.40;99.90
17774;DHT22;9011;33.236;-97.118;2022-11-11T12:10:43;10.40;99.90
17774;DHT22;9011;33.236;-97.118;2022-11-11T12:13:28;10.30;99.90
17774;DHT22;9011;33.236;-97.118;2022-11-11T12:16:05;10.30;99.90
17774;DHT22;9011;33.236;-97.118;2022-11-11T12:18:53;10.30;99.90
17774;DHT22;9011;33.236;-97.118;2022-11-11T12:21:29;10.20;99.90
17774;DHT22;9011;33.236;-97.118;2022-11-11T12:24:04;10.20;99.90
17774;DHT22;9011;33.236;-97.118;2022-11-11T12:26:42;10.10;99.90
17774;DHT22;9011;33.236;-97.118;2022-11-11T12:29:25;10.00;99.90
17774;DHT22;9011;33.236;-97.118;2022-11-11T12:32:17;10.10;99.90
17774;DHT22;9011;33.236;-97.118;2022-11-11T12:37:55;10.00;99.90
17774;DHT22;9011;33.236;-97.118;2022-11-11T12:40:34;10.10;99.90
17774;DHT22;9011;33.236;-97.118;2022-11-11T12:43:12;10.10;99.90
17774;DHT22;9011;33.236;-97.118;2022-11-11T12:45:46;10.10;99.90
17774;DHT22;9011;33.236;-97.118;2022-11-11T12:48:32;10.00;99.90
17774;DHT22;9011;33.236;-97.118;2022-11-11T12:51:08;9.90;99.90
17774;DHT22;9011;33.236;-97.118;2022-11-11T12:53:43;9.90;99.90
17774;DHT22;9011;33.236;-97.118;2022-11-11T12:56:22;9.90;99.90
17774;DHT22;9011;33.236;-97.118;2022-11-11T12:58:58;9.90;99.90
17774;DHT22;9011;33.236;-97.118;2022-11-11T13:01:39;9.90;99.90
17774;DHT22;9011;33.236;-97.118;2022-11-11T13:04:36;9.90;99.90
17774;DHT22;9011;33.236;-97.118;2022-11-11T13:07:31;9.80;99.90
17774;DHT22;9011;33.236;-97.118;2022-11-11T13:10:16;9.90;99.90
17774;DHT22;9011;33.236;-97.118;2022-11-11T13:12:52;9.80;99.90
17774;DHT22;9011;33.236;-97.118;2022-11-11T13:15:26;9.90;99.90
17774;DHT22;9011;33.236;-97.118;2022-11-11T13:17:59;9.90;99.90
17774;DHT22;9011;33.236;-97.118;2022-11-11T13:20:43;9.90;99.90
17774;DHT22;9011;33.236;-97.118;2022-11-11T13:23:13;9.90;99.90
17774;DHT22;9011;33.236;-97.118;2022-11-11T13:25:45;9.90;99.90
17774;DHT22;9011;33.236;-97.118;2022-11-11T13:28:18;9.90;99.90
17774;DHT22;9011;33.236;-97.118;2022-11-11T13:31:00;9.90;99.90
17774;DHT22;9011;33.236;-97.118;2022-11-11T13:33:38;9.80;99.90
17774;DHT22;9011;33.236;-97.118;2022-11-11T13:36:11;9.70;99.90
17774;DHT22;9011;33.236;-97.118;2022-11-11T13:38:45;9.70;99.90
17774;DHT22;9011;33.236;-97.118;2022-11-11T13:41:22;9.70;99.90
17774;DHT22;9011;33.236;-97.118;2022-11-11T13:43:52;9.70;99.90
17774;DHT22;9011;33.236;-97.118;2022-11-11T13:46:43;9.70;99.90
17774;DHT22;9011;33.236;-97.118;2022-11-11T13:49:22;9.50;99.90
17774;DHT22;9011;33.236;-97.118;2022-11-11T13:51:57;9.40;99.90
17774;DHT22;9011;33.236;-97.118;2022-11-11T13:54:28;9.40;99.90
17774;DHT22;9011;33.236;-97.118;2022-11-11T13:57:03;9.20;99.90
17774;DHT22;9011;33.236;-97.118;2022-11-11T13:59:34;9.30;99.90
17774;DHT22;9011;33.236;-97.118;2022-11-11T14:02:34;9.30;99.90
17774;DHT22;9011;33.236;-97.118;2022-11-11T14:05:23;9.20;99.90
17774;DHT22;9011;33.236;-97.118;2022-11-11T14:07:55;9.20;99.90
17774;DHT22;9011;33.236;-97.118;2022-11-11T14:10:50;9.20;99.90
17774;DHT22;9011;33.236;-97.118;2022-11-11T14:13:37;9.20;99.90
17774;DHT22;9011;33.236;-97.118;2022-11-11T14:16:09;9.20;99.90
17774;DHT22;9011;33.236;-97.118;2022-11-11T14:18:44;9.30;99.90
17774;DHT22;9011;33.236;-97.118;2022-11-11T14:21:43;9.20;99.90
17774;DHT22;9011;33.236;-97.118;2022-11-11T14:24:22;9.20;99.90
17774;DHT22;9011;33.236;-97.118;2022-11-11T14:26:58;9.30;99.90
17774;DHT22;9011;33.236;-97.118;2022-11-11T14:29:30;9.30;99.90
17774;DHT22;9011;33.236;-97.118;2022-11-11T14:35:26;9.30;99.90
17774;DHT22;9011;33.236;-97.118;2022-11-11T14:44:38;9.40;99.90
17774;DHT22;9011;33.236;-97.118;2022-11-11T14:47:24;9.40;99.90
17774;DHT22;9011;33.236;-97.118;2022-11-11T14:49:59;9.40;99.90
17774;DHT22;9011;33.236;-97.118;2022-11-11T14:52:34;9.40;99.90
17774;DHT22;9011;33.236;-97.118;2022-11-11T14:55:14;9.30;99.90
17774;DHT22;9011;33.236;-97.118;2022-11-11T14:57:46;9.30;99.90
17774;DHT22;9011;33.236;-97.118;2022-11-11T15:00:17;9.20;99.90
17774;DHT22;9011;33.236;-97.118;2022-11-11T15:02:49;9.20;99.90
17774;DHT22;9011;33.236;-97.118;2022-11-11T15:05:26;9.30;99.90
17774;DHT22;9011;33.236;-97.118;2022-11-11T15:08:13;9.30;99.90
17774;DHT22;9011;33.236;-97.118;2022-11-11T15:11:10;9.10;99.90
17774;DHT22;9011;33.236;-97.118;2022-11-11T15:17:00;9.00;99.90
17774;DHT22;9011;33.236;-97.118;2022-11-11T15:19:45;8.90;99.90
17774;DHT22;9011;33.236;-97.118;2022-11-11T15:22:28;8.90;99.90
17774;DHT22;9011;33.236;-97.118;2022-11-11T15:25:11;8.80;99.90
17774;DHT22;9011;33.236;-97.118;2022-11-11T15:27:46;8.70;99.90
17774;DHT22;9011;33.236;-97.118;2022-11-11T15:30:19;8.80;99.90
17774;DHT22;9011;33.236;-97.118;2022-11-11T15:33:01;8.70;99.90
17774;DHT22;9011;33.236;-97.118;2022-11-11T15:35:36;8.80;99.90
17774;DHT22;9011;33.236;-97.118;2022-11-11T15:38:11;8.80;99.90
17774;DHT22;9011;33.236;-97.118;2022-11-11T15:40:46;8.70;99.90
17774;DHT22;9011;33.236;-97.118;2022-11-11T15:43:18;8.70;99.90
17774;DHT22;9011;33.236;-97.118;2022-11-11T15:45:50;8.60;99.90
17774;DHT22;9011;33.236;-97.118;2022-11-11T15:48:22;8.50;99.90
17774;DHT22;9011;33.236;-97.118;2022-11-11T15:50:51;8.50;99.90
17774;DHT22;9011;33.236;-97.118;2022-11-11T15:53:23;8.50;99.90
17774;DHT22;9011;33.236;-97.118;2022-11-11T15:55:54;8.50;99.90
17774;DHT22;9011;33.236;-97.118;2022-11-11T15:58:27;8.40;99.90
17774;DHT22;9011;33.236;-97.118;2022-11-11T16:00:56;8.50;99.90
17774;DHT22;9011;33.236;-97.118;2022-11-11T16:03:29;8.50;99.90
17774;DHT22;9011;33.236;-97.118;2022-11-11T16:05:59;8.50;99.90
17774;DHT22;9011;33.236;-97.118;2022-11-11T16:08:29;8.60;99.90
17774;DHT22;9011;33.236;-97.118;2022-11-11T16:11:00;8.60;99.90
17774;DHT22;9011;33.236;-97.118;2022-11-11T16:13:32;8.50;99.90
17774;DHT22;9011;33.236;-97.118;2022-11-11T16:16:03;8.50;99.90
17774;DHT22;9011;33.236;-97.118;2022-11-11T16:18:38;8.50;99.90
17774;DHT22;9011;33.236;-97.118;2022-11-11T16:21:10;8.30;99.90
17774;DHT22;9011;33.236;-97.118;2022-11-11T16:23:40;8.10;99.90